ENBR/BGO METAR and TAF weather

Enter ICAO airport designator
Station Type Date Time Source
ENBR METAR 2019/04/18 20:20 UTC NOAA

ENBR 182020Z 13003KT CAVOK 09/M01 Q1037 RMK WIND 1200FT 17005KT


Station Type Date Time Source
ENBR Decoded METAR 2019/04/18 20:20 UTC NOAA

Bergen / Flesland, Norway (ENBR) 60-17N 005-14E 50M
Apr 18, 2019 - 04:20 PM EDT / 2019.04.18 2020 UTC
Wind: from the SE (130 degrees) at 3 MPH (3 KT):0
Visibility: greater than 7 mile(s):0
Temperature: 48 F (9 C)
Dew Point: 30 F (-1 C)
Relative Humidity: 49%
Pressure (altimeter): 30.62 in. Hg (1037 hPa)
ob: ENBR 182020Z 13003KT CAVOK 09/M01 Q1037 RMK WIND 1200FT 17005KT
cycle: 20

Station Type Date Time Source
ENBR TAF 2019/04/18 18:57 UTC NOAA

TAF ENBR 181700Z 1818/1918 VRB05KT CAVOK PROB40 1911/1917 22010KT

Example: see airport list